sensor_id;sensor_type;location;lat;lon;timestamp;pressure;altitude;pressure_sealevel;temperature;humidity
29569;BME280;16501;51.462;14.346;2022-08-19T00:01:47;99234.25;;;23.83;86.01
29569;BME280;16501;51.462;14.346;2022-08-19T00:04:15;99253.50;;;23.82;86.36
29569;BME280;16501;51.462;14.346;2022-08-19T00:06:42;99257.88;;;23.83;86.05
29569;BME280;16501;51.462;14.346;2022-08-19T00:09:11;99247.59;;;23.80;85.86
29569;BME280;16501;51.462;14.346;2022-08-19T00:11:38;99254.91;;;23.73;85.89
29569;BME280;16501;51.462;14.346;2022-08-19T00:14:06;99258.97;;;23.70;86.23
29569;BME280;16501;51.462;14.346;2022-08-19T00:16:33;99267.88;;;23.75;86.35
29569;BME280;16501;51.462;14.346;2022-08-19T00:18:59;99247.59;;;23.63;85.53
29569;BME280;16501;51.462;14.346;2022-08-19T00:21:25;99271.75;;;23.69;85.29
29569;BME280;16501;51.462;14.346;2022-08-19T00:23:52;99278.66;;;23.66;85.30
29569;BME280;16501;51.462;14.346;2022-08-19T00:26:18;99270.34;;;23.61;85.51
29569;BME280;16501;51.462;14.346;2022-08-19T00:28:44;99283.22;;;23.52;85.99
29569;BME280;16501;51.462;14.346;2022-08-19T00:31:10;99273.19;;;23.43;86.54
29569;BME280;16501;51.462;14.346;2022-08-19T00:33:36;99284.72;;;23.53;85.89
29569;BME280;16501;51.462;14.346;2022-08-19T00:36:03;99275.38;;;23.52;85.37
29569;BME280;16501;51.462;14.346;2022-08-19T00:38:32;99249.63;;;23.35;85.82
29569;BME280;16501;51.462;14.346;2022-08-19T00:40:57;99265.09;;;23.49;85.65
29569;BME280;16501;51.462;14.346;2022-08-19T00:43:26;99274.03;;;23.53;86.23
29569;BME280;16501;51.462;14.346;2022-08-19T00:45:54;99266.78;;;23.52;85.96
29569;BME280;16501;51.462;14.346;2022-08-19T00:48:20;99268.31;;;23.53;86.07
29569;BME280;16501;51.462;14.346;2022-08-19T00:50:47;99269.50;;;23.50;86.19
29569;BME280;16501;51.462;14.346;2022-08-19T00:53:16;99263.84;;;23.43;86.02
29569;BME280;16501;51.462;14.346;2022-08-19T00:55:48;99265.63;;;23.38;86.14
29569;BME280;16501;51.462;14.346;2022-08-19T00:58:18;99284.22;;;23.47;86.49
29569;BME280;16501;51.462;14.346;2022-08-19T01:00:46;99290.34;;;23.43;86.66
29569;BME280;16501;51.462;14.346;2022-08-19T01:03:19;99270.81;;;23.32;86.39
29569;BME280;16501;51.462;14.346;2022-08-19T01:05:47;99291.59;;;23.32;86.44
29569;BME280;16501;51.462;14.346;2022-08-19T01:08:15;99298.50;;;23.29;86.48
29569;BME280;16501;51.462;14.346;2022-08-19T01:10:54;99294.03;;;23.19;86.22
29569;BME280;16501;51.462;14.346;2022-08-19T01:13:23;99292.44;;;23.25;86.43
29569;BME280;16501;51.462;14.346;2022-08-19T01:15:52;99284.09;;;23.20;86.49
29569;BME280;16501;51.462;14.346;2022-08-19T01:18:20;99299.31;;;23.22;86.41
29569;BME280;16501;51.462;14.346;2022-08-19T01:20:46;99264.75;;;23.10;86.74
29569;BME280;16501;51.462;14.346;2022-08-19T01:23:14;99285.78;;;23.23;86.26
29569;BME280;16501;51.462;14.346;2022-08-19T01:25:48;99298.38;;;23.20;86.78
29569;BME280;16501;51.462;14.346;2022-08-19T01:28:18;99291.41;;;23.13;86.84
29569;BME280;16501;51.462;14.346;2022-08-19T01:30:45;99301.16;;;23.10;86.84
29569;BME280;16501;51.462;14.346;2022-08-19T01:33:11;99301.56;;;23.06;86.66
29569;BME280;16501;51.462;14.346;2022-08-19T01:35:36;99293.38;;;23.03;86.55
29569;BME280;16501;51.462;14.346;2022-08-19T01:38:04;99280.50;;;22.94;86.48
29569;BME280;16501;51.462;14.346;2022-08-19T01:40:36;99280.66;;;22.96;86.05
29569;BME280;16501;51.462;14.346;2022-08-19T01:43:02;99272.53;;;22.85;86.67
29569;BME280;16501;51.462;14.346;2022-08-19T01:45:30;99284.34;;;22.89;86.66
29569;BME280;16501;51.462;14.346;2022-08-19T01:47:57;99277.09;;;22.88;86.60
29569;BME280;16501;51.462;14.346;2022-08-19T01:50:25;99284.75;;;22.85;86.50
29569;BME280;16501;51.462;14.346;2022-08-19T01:52:51;99286.16;;;22.76;86.50
29569;BME280;16501;51.462;14.346;2022-08-19T01:55:18;99296.06;;;22.75;87.02
29569;BME280;16501;51.462;14.346;2022-08-19T01:57:48;99292.78;;;22.54;88.24
29569;BME280;16501;51.462;14.346;2022-08-19T02:00:18;99296.56;;;22.56;88.37
29569;BME280;16501;51.462;14.346;2022-08-19T02:02:44;99286.13;;;22.51;88.09
29569;BME280;16501;51.462;14.346;2022-08-19T02:05:10;99292.00;;;22.53;88.28
29569;BME280;16501;51.462;14.346;2022-08-19T02:07:36;99297.56;;;22.51;88.19
29569;BME280;16501;51.462;14.346;2022-08-19T02:10:07;99296.97;;;22.53;87.99
29569;BME280;16501;51.462;14.346;2022-08-19T02:12:33;99302.34;;;22.49;87.69
29569;BME280;16501;51.462;14.346;2022-08-19T02:14:59;99302.13;;;22.47;87.56
29569;BME280;16501;51.462;14.346;2022-08-19T02:17:24;99298.72;;;22.48;87.03
29569;BME280;16501;51.462;14.346;2022-08-19T02:19:50;99305.00;;;22.47;86.87
29569;BME280;16501;51.462;14.346;2022-08-19T02:22:15;99293.81;;;22.41;87.08
29569;BME280;16501;51.462;14.346;2022-08-19T02:24:40;99293.41;;;22.45;87.10
29569;BME280;16501;51.462;14.346;2022-08-19T02:27:06;99290.78;;;22.39;86.97
29569;BME280;16501;51.462;14.346;2022-08-19T02:29:31;99276.97;;;22.28;86.58
29569;BME280;16501;51.462;14.346;2022-08-19T02:31:56;99302.94;;;22.39;86.49
29569;BME280;16501;51.462;14.346;2022-08-19T02:34:23;99308.31;;;22.35;86.74
29569;BME280;16501;51.462;14.346;2022-08-19T02:36:49;99289.72;;;22.19;86.71
29569;BME280;16501;51.462;14.346;2022-08-19T02:39:15;99307.38;;;22.25;86.93
29569;BME280;16501;51.462;14.346;2022-08-19T02:41:41;99326.63;;;22.17;87.94
29569;BME280;16501;51.462;14.346;2022-08-19T02:44:06;99335.44;;;22.11;88.71
29569;BME280;16501;51.462;14.346;2022-08-19T02:46:33;99332.16;;;22.15;88.30
29569;BME280;16501;51.462;14.346;2022-08-19T02:49:04;99320.41;;;22.11;88.36
29569;BME280;16501;51.462;14.346;2022-08-19T02:51:36;99298.19;;;21.94;88.83
29569;BME280;16501;51.462;14.346;2022-08-19T02:54:02;99327.22;;;22.15;88.61
29569;BME280;16501;51.462;14.346;2022-08-19T02:56:28;99321.91;;;22.12;88.63
29569;BME280;16501;51.462;14.346;2022-08-19T02:58:57;99321.72;;;22.10;88.13
29569;BME280;16501;51.462;14.346;2022-08-19T03:01:32;99330.66;;;22.14;87.76
29569;BME280;16501;51.462;14.346;2022-08-19T03:04:00;99333.16;;;22.10;88.10
29569;BME280;16501;51.462;14.346;2022-08-19T03:06:26;99341.19;;;22.03;88.23
29569;BME280;16501;51.462;14.346;2022-08-19T03:08:53;99342.69;;;22.04;88.23
29569;BME280;16501;51.462;14.346;2022-08-19T03:11:28;99339.66;;;22.02;88.20
29569;BME280;16501;51.462;14.346;2022-08-19T03:13:55;99344.22;;;21.98;88.89
29569;BME280;16501;51.462;14.346;2022-08-19T03:16:23;99343.88;;;21.94;88.81
29569;BME280;16501;51.462;14.346;2022-08-19T03:18:49;99352.81;;;21.90;89.67
29569;BME280;16501;51.462;14.346;2022-08-19T03:21:19;99357.78;;;21.90;89.84
29569;BME280;16501;51.462;14.346;2022-08-19T03:23:45;99313.50;;;21.65;89.93
29569;BME280;16501;51.462;14.346;2022-08-19T03:26:10;99358.34;;;21.88;89.91
29569;BME280;16501;51.462;14.346;2022-08-19T03:28:36;99353.59;;;21.83;90.14
29569;BME280;16501;51.462;14.346;2022-08-19T03:31:07;99365.19;;;21.85;90.46
29569;BME280;16501;51.462;14.346;2022-08-19T03:33:34;99354.34;;;21.83;90.47
29569;BME280;16501;51.462;14.346;2022-08-19T03:36:05;99347.72;;;21.81;90.32
29569;BME280;16501;51.462;14.346;2022-08-19T03:38:32;99330.25;;;21.69;90.38
29569;BME280;16501;51.462;14.346;2022-08-19T03:40:57;99304.59;;;21.54;90.15
29569;BME280;16501;51.462;14.346;2022-08-19T03:43:24;99338.97;;;21.71;90.31
29569;BME280;16501;51.462;14.346;2022-08-19T03:46:09;99352.28;;;21.76;90.30
29569;BME280;16501;51.462;14.346;2022-08-19T03:48:36;99342.22;;;21.68;90.34
29569;BME280;16501;51.462;14.346;2022-08-19T03:51:03;99343.19;;;21.70;91.04
29569;BME280;16501;51.462;14.346;2022-08-19T03:53:30;99359.34;;;21.68;90.87
29569;BME280;16501;51.462;14.346;2022-08-19T03:55:57;99375.13;;;21.69;90.87
29569;BME280;16501;51.462;14.346;2022-08-19T03:58:28;99370.19;;;21.69;91.32
29569;BME280;16501;51.462;14.346;2022-08-19T04:00:56;99351.56;;;21.60;90.78
29569;BME280;16501;51.462;14.346;2022-08-19T04:03:23;99365.22;;;21.70;91.03
29569;BME280;16501;51.462;14.346;2022-08-19T04:05:48;99331.03;;;21.46;90.90
29569;BME280;16501;51.462;14.346;2022-08-19T04:08:15;99359.50;;;21.70;90.81
29569;BME280;16501;51.462;14.346;2022-08-19T04:10:43;99343.97;;;21.55;91.03
29569;BME280;16501;51.462;14.346;2022-08-19T04:13:09;99345.50;;;21.56;91.50
29569;BME280;16501;51.462;14.346;2022-08-19T04:15:40;99346.59;;;21.61;91.33
29569;BME280;16501;51.462;14.346;2022-08-19T04:18:09;99349.66;;;21.55;91.48
29569;BME280;16501;51.462;14.346;2022-08-19T04:20:43;99349.09;;;21.49;91.76
29569;BME280;16501;51.462;14.346;2022-08-19T04:23:09;99351.94;;;21.57;92.29
29569;BME280;16501;51.462;14.346;2022-08-19T04:25:39;99362.00;;;21.65;92.51
29569;BME280;16501;51.462;14.346;2022-08-19T04:28:05;99368.66;;;21.60;93.01
29569;BME280;16501;51.462;14.346;2022-08-19T04:30:37;99365.47;;;21.56;93.53
29569;BME280;16501;51.462;14.346;2022-08-19T04:33:03;99367.91;;;21.60;93.99
29569;BME280;16501;51.462;14.346;2022-08-19T04:35:35;99352.16;;;21.51;93.64
29569;BME280;16501;51.462;14.346;2022-08-19T04:38:00;99358.41;;;21.57;93.70
29569;BME280;16501;51.462;14.346;2022-08-19T04:40:25;99364.28;;;21.59;93.60
29569;BME280;16501;51.462;14.346;2022-08-19T04:43:09;99368.09;;;21.62;93.76
29569;BME280;16501;51.462;14.346;2022-08-19T04:45:37;99367.13;;;21.59;94.36
29569;BME280;16501;51.462;14.346;2022-08-19T04:48:02;99360.88;;;21.53;94.60
29569;BME280;16501;51.462;14.346;2022-08-19T04:50:29;99353.06;;;21.38;96.25
29569;BME280;16501;51.462;14.346;2022-08-19T04:52:54;99364.09;;;21.34;96.59
29569;BME280;16501;51.462;14.346;2022-08-19T04:55:22;99370.94;;;21.39;96.98
29569;BME280;16501;51.462;14.346;2022-08-19T04:57:48;99371.72;;;21.47;96.71
29569;BME280;16501;51.462;14.346;2022-08-19T05:00:14;99355.38;;;21.48;96.41
29569;BME280;16501;51.462;14.346;2022-08-19T05:02:39;99359.34;;;21.52;96.72
29569;BME280;16501;51.462;14.346;2022-08-19T05:05:05;99363.34;;;21.57;96.54
29569;BME280;16501;51.462;14.346;2022-08-19T05:07:31;99362.41;;;21.62;96.26
29569;BME280;16501;51.462;14.346;2022-08-19T05:09:58;99370.19;;;21.61;95.54
29569;BME280;16501;51.462;14.346;2022-08-19T05:12:23;99380.84;;;21.69;95.96
29569;BME280;16501;51.462;14.346;2022-08-19T05:14:49;99371.72;;;21.70;95.97
29569;BME280;16501;51.462;14.346;2022-08-19T05:17:15;99374.00;;;21.64;96.15
29569;BME280;16501;51.462;14.346;2022-08-19T05:19:41;99379.50;;;21.70;96.21
29569;BME280;16501;51.462;14.346;2022-08-19T05:22:26;99377.78;;;21.74;96.14
29569;BME280;16501;51.462;14.346;2022-08-19T05:25:06;99365.63;;;21.74;96.38
29569;BME280;16501;51.462;14.346;2022-08-19T05:27:32;99381.00;;;21.71;96.86
29569;BME280;16501;51.462;14.346;2022-08-19T05:29:58;99384.47;;;21.61;97.43
29569;BME280;16501;51.462;14.346;2022-08-19T05:32:23;99388.47;;;21.58;97.90
29569;BME280;16501;51.462;14.346;2022-08-19T05:34:48;99397.75;;;21.59;97.88
29569;BME280;16501;51.462;14.346;2022-08-19T05:37:14;99410.69;;;21.68;97.50
29569;BME280;16501;51.462;14.346;2022-08-19T05:39:39;99413.34;;;21.65;97.79
29569;BME280;16501;51.462;14.346;2022-08-19T05:42:09;99415.25;;;21.71;97.76
29569;BME280;16501;51.462;14.346;2022-08-19T05:44:38;99416.00;;;21.71;97.65
29569;BME280;16501;51.462;14.346;2022-08-19T05:47:06;99422.28;;;21.70;97.80
29569;BME280;16501;51.462;14.346;2022-08-19T05:49:33;99422.47;;;21.72;97.76
29569;BME280;16501;51.462;14.346;2022-08-19T05:52:02;99433.88;;;21.72;97.48
29569;BME280;16501;51.462;14.346;2022-08-19T05:54:28;99416.22;;;21.65;97.38
29569;BME280;16501;51.462;14.346;2022-08-19T05:56:53;99435.41;;;21.73;97.52
29569;BME280;16501;51.462;14.346;2022-08-19T05:59:20;99403.28;;;21.49;97.93
29569;BME280;16501;51.462;14.346;2022-08-19T06:01:47;99423.81;;;21.71;98.22
29569;BME280;16501;51.462;14.346;2022-08-19T06:04:16;99434.09;;;21.74;98.52
29569;BME280;16501;51.462;14.346;2022-08-19T06:06:44;99424.94;;;21.68;98.58
29569;BME280;16501;51.462;14.346;2022-08-19T06:09:09;99443.22;;;21.72;98.46
29569;BME280;16501;51.462;14.346;2022-08-19T06:11:39;99448.16;;;21.79;98.71
29569;BME280;16501;51.462;14.346;2022-08-19T06:14:11;99459.75;;;21.74;98.41
29569;BME280;16501;51.462;14.346;2022-08-19T06:16:38;99470.59;;;21.83;97.98
29569;BME280;16501;51.462;14.346;2022-08-19T06:19:06;99470.59;;;21.83;97.83
29569;BME280;16501;51.462;14.346;2022-08-19T06:21:34;99472.28;;;21.78;98.29
29569;BME280;16501;51.462;14.346;2022-08-19T06:24:02;99463.00;;;21.70;98.22
29569;BME280;16501;51.462;14.346;2022-08-19T06:26:28;99471.34;;;21.76;98.16
29569;BME280;16501;51.462;14.346;2022-08-19T06:28:54;99474.03;;;21.74;98.76
29569;BME280;16501;51.462;14.346;2022-08-19T06:31:24;99479.34;;;21.62;99.85
29569;BME280;16501;51.462;14.346;2022-08-19T06:33:49;99478.97;;;21.50;99.74
29569;BME280;16501;51.462;14.346;2022-08-19T06:36:24;99481.22;;;21.44;100.00
29569;BME280;16501;51.462;14.346;2022-08-19T06:38:54;99442.38;;;21.18;100.00
29569;BME280;16501;51.462;14.346;2022-08-19T06:41:20;99485.75;;;21.32;100.00
29569;BME280;16501;51.462;14.346;2022-08-19T06:43:45;99481.16;;;21.21;100.00
29569;BME280;16501;51.462;14.346;2022-08-19T06:46:16;99491.25;;;21.29;100.00
29569;BME280;16501;51.462;14.346;2022-08-19T06:48:43;99491.25;;;21.29;100.00
29569;BME280;16501;51.462;14.346;2022-08-19T06:51:08;99488.78;;;21.18;100.00
29569;BME280;16501;51.462;14.346;2022-08-19T06:53:34;99490.50;;;21.21;100.00
29569;BME280;16501;51.462;14.346;2022-08-19T06:55:59;99511.63;;;21.34;100.00
29569;BME280;16501;51.462;14.346;2022-08-19T06:58:30;99517.31;;;21.34;100.00
29569;BME280;16501;51.462;14.346;2022-08-19T07:01:01;99521.09;;;21.28;100.00
29569;BME280;16501;51.462;14.346;2022-08-19T07:03:29;99521.84;;;21.21;100.00
29569;BME280;16501;51.462;14.346;2022-08-19T07:05:56;99524.50;;;21.19;100.00
29569;BME280;16501;51.462;14.346;2022-08-19T07:08:21;99531.72;;;21.20;100.00
29569;BME280;16501;51.462;14.346;2022-08-19T07:10:46;99537.78;;;21.17;100.00
29569;BME280;16501;51.462;14.346;2022-08-19T07:13:13;99530.94;;;21.12;100.00
29569;BME280;16501;51.462;14.346;2022-08-19T07:15:38;99519.53;;;21.04;100.00
29569;BME280;16501;51.462;14.346;2022-08-19T07:18:03;99525.22;;;21.04;100.00
29569;BME280;16501;51.462;14.346;2022-08-19T07:20:28;99490.94;;;20.81;100.00
29569;BME280;16501;51.462;14.346;2022-08-19T07:22:55;99513.75;;;20.89;100.00
29569;BME280;16501;51.462;14.346;2022-08-19T07:25:20;99528.66;;;21.10;100.00
29569;BME280;16501;51.462;14.346;2022-08-19T07:27:48;99527.50;;;21.06;100.00
29569;BME280;16501;51.462;14.346;2022-08-19T07:30:14;99524.06;;;21.00;100.00
29569;BME280;16501;51.462;14.346;2022-08-19T07:32:40;99541.16;;;21.00;100.00
29569;BME280;16501;51.462;14.346;2022-08-19T07:35:06;99545.31;;;20.91;100.00
29569;BME280;16501;51.462;14.346;2022-08-19T07:37:32;99553.25;;;20.85;100.00
29569;BME280;16501;51.462;14.346;2022-08-19T07:39:57;99550.97;;;20.83;100.00
29569;BME280;16501;51.462;14.346;2022-08-19T07:42:22;99559.09;;;20.79;100.00
29569;BME280;16501;51.462;14.346;2022-08-19T07:44:49;99552.81;;;20.73;100.00
29569;BME280;16501;51.462;14.346;2022-08-19T07:47:14;99555.88;;;20.83;100.00
29569;BME280;16501;51.462;14.346;2022-08-19T07:49:42;99562.56;;;20.85;100.00
29569;BME280;16501;51.462;14.346;2022-08-19T07:52:09;99570.75;;;20.89;100.00
29569;BME280;16501;51.462;14.346;2022-08-19T07:54:36;99581.94;;;20.87;100.00
29569;BME280;16501;51.462;14.346;2022-08-19T07:57:02;99572.97;;;20.83;100.00
29569;BME280;16501;51.462;14.346;2022-08-19T07:59:28;99595.47;;;20.94;100.00
29569;BME280;16501;51.462;14.346;2022-08-19T08:01:54;99574.31;;;20.82;100.00
29569;BME280;16501;51.462;14.346;2022-08-19T08:04:21;99591.59;;;20.76;100.00
29569;BME280;16501;51.462;14.346;2022-08-19T08:07:06;99583.06;;;20.84;100.00
29569;BME280;16501;51.462;14.346;2022-08-19T08:09:50;99583.97;;;20.71;100.00
29569;BME280;16501;51.462;14.346;2022-08-19T08:12:23;99583.59;;;20.75;100.00
29569;BME280;16501;51.462;14.346;2022-08-19T08:14:53;99592.38;;;20.84;100.00
29569;BME280;16501;51.462;14.346;2022-08-19T08:17:25;99565.63;;;20.59;100.00
29569;BME280;16501;51.462;14.346;2022-08-19T08:19:51;99587.56;;;20.71;100.00
29569;BME280;16501;51.462;14.346;2022-08-19T08:22:19;99592.72;;;20.81;100.00
29569;BME280;16501;51.462;14.346;2022-08-19T08:25:06;99595.03;;;20.82;100.00
29569;BME280;16501;51.462;14.346;2022-08-19T08:27:35;99578.69;;;20.83;100.00
29569;BME280;16501;51.462;14.346;2022-08-19T08:30:02;99592.44;;;21.00;100.00
29569;BME280;16501;51.462;14.346;2022-08-19T08:32:29;99588.66;;;20.97;100.00
29569;BME280;16501;51.462;14.346;2022-08-19T08:34:55;99587.91;;;21.04;100.00
29569;BME280;16501;51.462;14.346;2022-08-19T08:37:20;99587.94;;;21.12;100.00
29569;BME280;16501;51.462;14.346;2022-08-19T08:39:48;99602.38;;;21.06;100.00
29569;BME280;16501;51.462;14.346;2022-08-19T08:42:24;99595.53;;;21.09;100.00
29569;BME280;16501;51.462;14.346;2022-08-19T08:45:02;99594.91;;;20.96;100.00
29569;BME280;16501;51.462;14.346;2022-08-19T08:47:31;99605.31;;;20.93;100.00
29569;BME280;16501;51.462;14.346;2022-08-19T08:50:04;99608.44;;;21.03;100.00
29569;BME280;16501;51.462;14.346;2022-08-19T08:52:35;99608.25;;;21.08;100.00
29569;BME280;16501;51.462;14.346;2022-08-19T08:55:05;99607.50;;;21.08;100.00
29569;BME280;16501;51.462;14.346;2022-08-19T09:00:15;99613.03;;;21.14;100.00
29569;BME280;16501;51.462;14.346;2022-08-19T09:02:43;99606.56;;;21.13;100.00
29569;BME280;16501;51.462;14.346;2022-08-19T09:05:09;99606.53;;;21.05;100.00
29569;BME280;16501;51.462;14.346;2022-08-19T09:07:46;99608.59;;;20.97;100.00
29569;BME280;16501;51.462;14.346;2022-08-19T09:16:17;99619.66;;;21.08;100.00
29569;BME280;16501;51.462;14.346;2022-08-19T09:18:49;99623.47;;;21.11;100.00
29569;BME280;16501;51.462;14.346;2022-08-19T09:21:18;99587.09;;;20.88;100.00
29569;BME280;16501;51.462;14.346;2022-08-19T09:23:44;99600.06;;;21.05;100.00
29569;BME280;16501;51.462;14.346;2022-08-19T09:26:12;99608.09;;;21.14;100.00
29569;BME280;16501;51.462;14.346;2022-08-19T09:28:42;99599.38;;;21.20;100.00
29569;BME280;16501;51.462;14.346;2022-08-19T09:31:11;99600.88;;;21.13;100.00
29569;BME280;16501;51.462;14.346;2022-08-19T09:33:37;99605.09;;;21.20;100.00
29569;BME280;16501;51.462;14.346;2022-08-19T09:36:07;99621.84;;;21.31;100.00
29569;BME280;16501;51.462;14.346;2022-08-19T09:38:33;99622.78;;;21.26;100.00
29569;BME280;16501;51.462;14.346;2022-08-19T09:41:04;99625.63;;;21.26;100.00
29569;BME280;16501;51.462;14.346;2022-08-19T09:43:32;99626.00;;;21.22;100.00
29569;BME280;16501;51.462;14.346;2022-08-19T09:45:59;99630.56;;;21.25;100.00
29569;BME280;16501;51.462;14.346;2022-08-19T09:48:25;99626.00;;;21.22;100.00
29569;BME280;16501;51.462;14.346;2022-08-19T09:50:51;99614.19;;;21.18;100.00
29569;BME280;16501;51.462;14.346;2022-08-19T09:53:16;99625.78;;;21.20;100.00
29569;BME280;16501;51.462;14.346;2022-08-19T09:55:42;99621.41;;;21.19;100.00
29569;BME280;16501;51.462;14.346;2022-08-19T09:58:08;99607.72;;;21.18;100.00
29569;BME280;16501;51.462;14.346;2022-08-19T10:00:33;99591.91;;;21.09;100.00
29569;BME280;16501;51.462;14.346;2022-08-19T10:02:59;99604.53;;;21.21;100.00
29569;BME280;16501;51.462;14.346;2022-08-19T10:05:24;99583.94;;;21.07;100.00
29569;BME280;16501;51.462;14.346;2022-08-19T10:08:09;99583.41;;;21.24;100.00
29569;BME280;16501;51.462;14.346;2022-08-19T10:10:35;99576.22;;;21.23;100.00
29569;BME280;16501;51.462;14.346;2022-08-19T10:13:00;99566.69;;;21.21;100.00
29569;BME280;16501;51.462;14.346;2022-08-19T10:15:26;99573.56;;;21.33;100.00
29569;BME280;16501;51.462;14.346;2022-08-19T10:17:51;99581.16;;;21.31;100.00
29569;BME280;16501;51.462;14.346;2022-08-19T10:20:16;99601.31;;;21.33;100.00
29569;BME280;16501;51.462;14.346;2022-08-19T10:22:42;99611.59;;;21.36;100.00
29569;BME280;16501;51.462;14.346;2022-08-19T10:25:08;99598.66;;;21.35;100.00
29569;BME280;16501;51.462;14.346;2022-08-19T10:27:33;99615.47;;;21.46;100.00
29569;BME280;16501;51.462;14.346;2022-08-19T10:30:00;99613.38;;;21.46;100.00
29569;BME280;16501;51.462;14.346;2022-08-19T10:32:26;99634.53;;;21.66;100.00
29569;BME280;16501;51.462;14.346;2022-08-19T10:34:53;99633.22;;;21.75;100.00
29569;BME280;16501;51.462;14.346;2022-08-19T10:37:18;99625.06;;;21.87;100.00
29569;BME280;16501;51.462;14.346;2022-08-19T10:39:45;99628.88;;;21.97;99.43
29569;BME280;16501;51.462;14.346;2022-08-19T10:42:13;99622.59;;;21.99;99.07
29569;BME280;16501;51.462;14.346;2022-08-19T10:44:49;99632.31;;;22.03;99.00
29569;BME280;16501;51.462;14.346;2022-08-19T10:47:15;99640.50;;;22.15;98.96
29569;BME280;16501;51.462;14.346;2022-08-19T10:49:40;99638.59;;;22.25;97.80
29569;BME280;16501;51.462;14.346;2022-08-19T10:52:26;99644.16;;;22.38;97.36
29569;BME280;16501;51.462;14.346;2022-08-19T10:55:02;99648.34;;;22.53;97.49
29569;BME280;16501;51.462;14.346;2022-08-19T10:57:46;99661.47;;;22.56;95.78
29569;BME280;16501;51.462;14.346;2022-08-19T11:00:12;99658.22;;;22.52;96.06
29569;BME280;16501;51.462;14.346;2022-08-19T11:02:38;99659.00;;;22.60;95.61
29569;BME280;16501;51.462;14.346;2022-08-19T11:05:04;99671.19;;;22.53;95.25
29569;BME280;16501;51.462;14.346;2022-08-19T11:07:30;99659.38;;;22.41;95.14
29569;BME280;16501;51.462;14.346;2022-08-19T11:09:57;99657.50;;;22.28;94.84
29569;BME280;16501;51.462;14.346;2022-08-19T11:12:22;99651.16;;;22.22;95.56
29569;BME280;16501;51.462;14.346;2022-08-19T11:14:48;99658.22;;;22.21;96.01
29569;BME280;16501;51.462;14.346;2022-08-19T11:17:15;99675.34;;;22.21;95.69
29569;BME280;16501;51.462;14.346;2022-08-19T11:19:42;99654.22;;;22.09;95.18
29569;BME280;16501;51.462;14.346;2022-08-19T11:22:11;99673.81;;;22.12;95.89
29569;BME280;16501;51.462;14.346;2022-08-19T11:24:36;99677.81;;;22.17;96.08
29569;BME280;16501;51.462;14.346;2022-08-19T11:27:09;99681.25;;;22.23;96.73
29569;BME280;16501;51.462;14.346;2022-08-19T11:29:37;99676.47;;;22.18;96.75
29569;BME280;16501;51.462;14.346;2022-08-19T11:32:05;99687.16;;;22.25;96.94
29569;BME280;16501;51.462;14.346;2022-08-19T11:34:31;99680.50;;;22.22;97.61
29569;BME280;16501;51.462;14.346;2022-08-19T11:36:57;99693.47;;;22.31;96.29
29569;BME280;16501;51.462;14.346;2022-08-19T11:39:26;99691.19;;;22.30;95.78
29569;BME280;16501;51.462;14.346;2022-08-19T11:41:52;99682.97;;;22.26;96.14
29569;BME280;16501;51.462;14.346;2022-08-19T11:44:18;99680.88;;;22.27;96.71
29569;BME280;16501;51.462;14.346;2022-08-19T11:46:45;99698.25;;;22.36;96.56
29569;BME280;16501;51.462;14.346;2022-08-19T11:49:14;99699.00;;;22.37;95.95
29569;BME280;16501;51.462;14.346;2022-08-19T11:51:41;99689.66;;;22.29;96.39
29569;BME280;16501;51.462;14.346;2022-08-19T11:54:10;99709.25;;;22.32;96.69
29569;BME280;16501;51.462;14.346;2022-08-19T11:56:37;99704.91;;;22.31;96.69
29569;BME280;16501;51.462;14.346;2022-08-19T11:59:03;99710.97;;;22.35;95.76
29569;BME280;16501;51.462;14.346;2022-08-19T12:01:29;99702.78;;;22.32;95.54
29569;BME280;16501;51.462;14.346;2022-08-19T12:03:56;99702.78;;;22.39;95.21
29569;BME280;16501;51.462;14.346;2022-08-19T12:06:28;99704.31;;;22.40;95.38
29569;BME280;16501;51.462;14.346;2022-08-19T12:08:57;99707.75;;;22.39;95.57
29569;BME280;16501;51.462;14.346;2022-08-19T12:11:23;99704.13;;;22.38;95.25
29569;BME280;16501;51.462;14.346;2022-08-19T12:13:49;99698.25;;;22.36;95.48
29569;BME280;16501;51.462;14.346;2022-08-19T12:16:18;99703.75;;;22.42;95.38
29569;BME280;16501;51.462;14.346;2022-08-19T12:18:45;99712.31;;;22.42;95.18
29569;BME280;16501;51.462;14.346;2022-08-19T12:21:15;99702.59;;;22.37;94.44
29569;BME280;16501;51.462;14.346;2022-08-19T12:23:41;99706.06;;;22.44;94.78
29569;BME280;16501;51.462;14.346;2022-08-19T12:26:09;99686.41;;;22.25;94.83
29569;BME280;16501;51.462;14.346;2022-08-19T12:28:34;99688.28;;;22.22;95.06
29569;BME280;16501;51.462;14.346;2022-08-19T12:31:01;99696.13;;;22.29;95.17
29569;BME280;16501;51.462;14.346;2022-08-19T12:33:26;99712.31;;;22.34;94.83
29569;BME280;16501;51.462;14.346;2022-08-19T12:35:53;99710.03;;;22.33;94.98
29569;BME280;16501;51.462;14.346;2022-08-19T12:38:19;99713.06;;;22.27;95.36
29569;BME280;16501;51.462;14.346;2022-08-19T12:40:46;99703.34;;;22.22;94.95
29569;BME280;16501;51.462;14.346;2022-08-19T12:43:12;99713.97;;;22.22;95.28
29569;BME280;16501;51.462;14.346;2022-08-19T12:45:38;99710.00;;;22.17;95.40
29569;BME280;16501;51.462;14.346;2022-08-19T12:48:04;99703.31;;;22.15;95.57
29569;BME280;16501;51.462;14.346;2022-08-19T12:50:53;99702.75;;;22.16;95.93
29569;BME280;16501;51.462;14.346;2022-08-19T12:53:38;99700.88;;;22.19;96.01
29569;BME280;16501;51.462;14.346;2022-08-19T12:56:06;99700.28;;;22.13;95.68
29569;BME280;16501;51.462;14.346;2022-08-19T12:58:31;99708.47;;;22.16;95.21
29569;BME280;16501;51.462;14.346;2022-08-19T13:00:59;99721.59;;;22.19;95.72